Time;durP1;ratioP1;P1;durP2;ratioP2;P2;SDS_P1;SDS_P2;PMS_P1;PMS_P2;Temp;Humidity;BMP_temperature;BMP_pressure;BME280_temperature;BME280_humidity;BME280_pressure;Samples;Min_cycle;Max_cycle;Signal;HPM_P1;HPM_P2
2023/07/11 00:13:20;;;;;;;3.55;3.22;;;;;;;;;;5092685;28;20316;-28
2023/07/11 00:25:20;;;;;;;3.92;3.28;;;;;;;;;;5096313;22;20260;-28
2023/07/11 00:28:19;;;;;;;3.72;3.13;;;;;;;;;;5053329;28;20248;-33
2023/07/11 00:34:14;;;;;;;3.88;3.10;;;;;;;;;;5051956;28;20276;-35
2023/07/11 00:37:28;;;;;;;3.83;2.97;;;;;;;;;;5054991;28;20225;-32
2023/07/11 00:43:03;;;;;;;3.20;2.90;;;;;;;;;;5053353;28;20213;-30
2023/07/11 00:46:06;;;;;;;4.07;3.15;;;;;;;;;;5055051;28;20297;-33
2023/07/11 00:49:03;;;;;;;3.50;3.20;;;;;;;;;;5043696;28;20271;-31
2023/07/11 00:51:56;;;;;;;3.67;3.20;;;;;;;;;;5050239;28;20258;-33
2023/07/11 00:57:49;;;;;;;4.50;3.10;;;;;;;;;;5045863;28;20236;-32
2023/07/11 01:01:02;;;;;;;;;;;;;;;;;;;;;
2023/07/11 01:03:59;;;;;;;3.35;3.05;;;;;;;;;;5051030;28;20207;-31
2023/07/11 01:06:58;;;;;;;3.50;3.20;;;;;;;;;;5049509;28;20212;-31
2023/07/11 01:09:58;;;;;;;4.05;3.00;;;;;;;;;;5180493;22;20252;-33
2023/07/11 01:15:56;;;;;;;2.92;2.63;;;;;;;;;;5044323;28;20204;-33
2023/07/11 01:18:32;;;;;;;3.20;2.90;;;;;;;;;;5053511;28;20236;-30
2023/07/11 01:21:24;;;;;;;4.28;3.40;;;;;;;;;;5053723;28;20213;-30
2023/07/11 01:24:15;;;;;;;4.57;3.08;;;;;;;;;;5053865;28;20209;-31
2023/07/11 01:27:03;;;;;;;4.63;3.22;;;;;;;;;;5054339;28;20231;-34
2023/07/11 01:29:46;;;;;;;3.08;2.75;;;;;;;;;;5053638;28;20257;-31
2023/07/11 01:38:15;;;;;;;3.83;3.42;;;;;;;;;;5053333;28;20236;-33
2023/07/11 01:52:22;;;;;;;4.55;3.35;;;;;;;;;;5073101;28;20200;-33
2023/07/11 01:55:10;;;;;;;3.03;2.83;;;;;;;;;;5069113;28;20205;-30
2023/07/11 01:57:53;;;;;;;3.33;3.03;;;;;;;;;;5062837;28;20328;-31
2023/07/11 02:00:37;;;;;;;3.20;2.90;;;;;;;;;;5074489;28;20219;-32
2023/07/11 02:03:24;;;;;;;3.80;3.40;;;;;;;;;;5073853;28;20222;-31
2023/07/11 02:06:07;;;;;;;3.88;3.15;;;;;;;;;;5063001;28;20228;-32
2023/07/11 02:09:07;;;;;;;3.72;3.33;;;;;;;;;;5065227;28;20232;-34
2023/07/11 02:11:52;;;;;;;3.33;3.03;;;;;;;;;;5053362;28;20286;-33
2023/07/11 02:14:51;;;;;;;4.22;2.97;;;;;;;;;;5053703;28;20222;-33
2023/07/11 02:20:09;;;;;;;3.40;3.10;;;;;;;;;;5103155;23;20240;-29
2023/07/11 02:22:36;;;;;;;4.47;2.92;;;;;;;;;;5084909;28;20207;-30
2023/07/11 02:27:39;;;;;;;4.65;3.50;;;;;;;;;;5027872;28;20574;-26
2023/07/11 02:30:07;;;;;;;3.95;3.10;;;;;;;;;;5029282;28;20204;-27
2023/07/11 02:32:35;;;;;;;3.85;3.17;;;;;;;;;;5029193;28;20297;-26
2023/07/11 02:35:02;;;;;;;4.20;3.38;;;;;;;;;;5021617;28;20678;-25
2023/07/11 02:37:29;;;;;;;3.03;2.83;;;;;;;;;;5020843;28;20431;-26
2023/07/11 02:39:56;;;;;;;3.45;3.15;;;;;;;;;;5021890;28;20213;-24
2023/07/11 02:42:23;;;;;;;3.70;3.22;;;;;;;;;;5027839;28;20230;-26
2023/07/11 02:44:51;;;;;;;3.65;3.13;;;;;;;;;;5020996;28;20237;-22
2023/07/11 02:47:18;;;;;;;3.40;3.03;;;;;;;;;;5029011;28;20213;-24
2023/07/11 02:49:46;;;;;;;4.25;3.67;;;;;;;;;;5024370;28;20232;-27
2023/07/11 02:52:13;;;;;;;3.80;3.05;;;;;;;;;;5025680;28;20215;-28
2023/07/11 02:54:40;;;;;;;4.45;2.92;;;;;;;;;;5026199;28;20209;-26
2023/07/11 02:57:08;;;;;;;3.85;3.17;;;;;;;;;;5013117;28;20201;-25
2023/07/11 02:59:35;;;;;;;3.55;3.25;;;;;;;;;;5021109;28;20311;-23
2023/07/11 03:02:04;;;;;;;5.35;3.20;;;;;;;;;;5032959;28;20204;-26
2023/07/11 03:04:31;;;;;;;4.85;3.35;;;;;;;;;;5025797;28;20204;-24
2023/07/11 03:06:58;;;;;;;4.50;3.20;;;;;;;;;;5020791;28;20211;-26
2023/07/11 03:09:26;;;;;;;3.40;3.08;;;;;;;;;;5011787;28;20243;-25
2023/07/11 03:11:54;;;;;;;4.20;2.95;;;;;;;;;;5021586;28;20220;-27
2023/07/11 03:14:21;;;;;;;4.28;3.35;;;;;;;;;;5026555;28;20201;-24
2023/07/11 03:16:51;;;;;;;5.90;3.00;;;;;;;;;;5013047;28;20212;-26
2023/07/11 03:19:21;;;;;;;5.07;3.50;;;;;;;;;;5011356;28;20687;-23
2023/07/11 03:21:48;;;;;;;3.90;3.50;;;;;;;;;;5023867;28;20692;-26
2023/07/11 03:24:15;;;;;;;7.10;3.30;;;;;;;;;;5026629;28;20201;-26
2023/07/11 03:26:42;;;;;;;3.63;3.33;;;;;;;;;;5039340;28;20219;-24
2023/07/11 03:29:09;;;;;;;4.03;3.20;;;;;;;;;;5039709;28;20220;-26
2023/07/11 03:31:37;;;;;;;6.00;3.30;;;;;;;;;;5040120;28;20720;-26
2023/07/11 03:34:04;;;;;;;3.78;3.47;;;;;;;;;;5052174;28;20221;-28
2023/07/11 03:36:32;;;;;;;3.58;3.30;;;;;;;;;;5043091;28;20208;-23
2023/07/11 03:38:59;;;;;;;3.60;3.28;;;;;;;;;;5048087;28;20259;-24
2023/07/11 03:41:26;;;;;;;4.00;3.10;;;;;;;;;;5038586;28;20209;-29
2023/07/11 03:43:53;;;;;;;4.35;3.55;;;;;;;;;;5034163;28;20614;-26
2023/07/11 03:46:20;;;;;;;4.43;3.35;;;;;;;;;;5052653;28;20202;-24
2023/07/11 03:48:48;;;;;;;5.78;3.75;;;;;;;;;;5054474;28;20222;-25
2023/07/11 03:51:15;;;;;;;4.35;3.95;;;;;;;;;;5042518;28;20246;-22
2023/07/11 03:53:44;;;;;;;4.78;3.55;;;;;;;;;;5036800;28;20207;-23
2023/07/11 03:56:11;;;;;;;3.42;3.13;;;;;;;;;;5049387;28;20207;-27
2023/07/11 03:58:39;;;;;;;4.70;3.78;;;;;;;;;;5037991;28;20253;-25
2023/07/11 04:01:06;;;;;;;3.80;3.40;;;;;;;;;;5054495;28;20443;-26
2023/07/11 04:03:33;;;;;;;5.07;3.42;;;;;;;;;;5053593;28;20206;-24
2023/07/11 04:06:00;;;;;;;4.95;3.20;;;;;;;;;;5049595;28;20213;-26
2023/07/11 04:08:27;;;;;;;3.50;3.20;;;;;;;;;;5043077;28;20223;-24
2023/07/11 04:10:56;;;;;;;4.43;3.45;;;;;;;;;;5038131;28;20673;-25
2023/07/11 04:13:24;;;;;;;3.72;3.35;;;;;;;;;;5046531;28;20227;-24
2023/07/11 04:15:51;;;;;;;7.47;3.78;;;;;;;;;;5034170;28;20466;-25
2023/07/11 04:18:18;;;;;;;3.50;3.20;;;;;;;;;;5035088;28;20234;-23
2023/07/11 04:20:46;;;;;;;3.65;3.35;;;;;;;;;;5040516;28;20752;-25
2023/07/11 04:23:13;;;;;;;3.42;3.13;;;;;;;;;;5043434;28;20260;-23
2023/07/11 04:25:40;;;;;;;4.28;3.60;;;;;;;;;;5035990;28;20214;-24
2023/07/11 04:28:09;;;;;;;3.97;3.42;;;;;;;;;;5046325;28;20221;-22
2023/07/11 04:30:37;;;;;;;5.32;3.60;;;;;;;;;;5041868;28;20215;-23
2023/07/11 04:33:04;;;;;;;4.18;3.53;;;;;;;;;;5052545;28;20253;-30
2023/07/11 04:35:31;;;;;;;3.67;3.38;;;;;;;;;;5043351;28;20266;-25
2023/07/11 04:37:59;;;;;;;4.05;3.65;;;;;;;;;;5041595;28;20224;-27
2023/07/11 04:40:26;;;;;;;4.35;3.60;;;;;;;;;;5042921;28;20207;-26
2023/07/11 04:42:53;;;;;;;6.65;4.50;;;;;;;;;;5034668;28;20207;-26
2023/07/11 04:45:21;;;;;;;6.25;3.38;;;;;;;;;;5047586;28;20207;-26
2023/07/11 04:47:48;;;;;;;3.83;3.47;;;;;;;;;;5053436;28;20226;-23
2023/07/11 04:50:15;;;;;;;4.45;3.80;;;;;;;;;;5050099;28;20206;-25
2023/07/11 04:52:44;;;;;;;3.65;3.35;;;;;;;;;;5043327;28;20220;-25
2023/07/11 04:55:11;;;;;;;4.00;3.58;;;;;;;;;;5043802;28;20197;-23
2023/07/11 04:57:38;;;;;;;3.92;3.33;;;;;;;;;;5052077;28;20207;-26
2023/07/11 05:00:06;;;;;;;3.92;3.17;;;;;;;;;;5040999;28;20203;-24
2023/07/11 05:02:35;;;;;;;4.60;4.05;;;;;;;;;;5032952;28;20261;-24
2023/07/11 05:05:02;;;;;;;4.93;3.30;;;;;;;;;;5042676;28;20208;-26
2023/07/11 05:07:29;;;;;;;5.07;3.60;;;;;;;;;;5044891;28;20663;-27
2023/07/11 05:09:56;;;;;;;5.72;3.85;;;;;;;;;;5032803;28;20203;-25
2023/07/11 05:12:23;;;;;;;4.93;4.32;;;;;;;;;;5047162;28;20211;-23
2023/07/11 05:14:50;;;;;;;4.78;4.15;;;;;;;;;;5035252;28;20211;-25
2023/07/11 05:17:18;;;;;;;3.97;3.63;;;;;;;;;;5033217;28;20563;-28
2023/07/11 05:19:46;;;;;;;5.88;4.15;;;;;;;;;;5034295;28;20242;-25
2023/07/11 05:22:13;;;;;;;5.25;3.70;;;;;;;;;;5048333;28;20202;-25
2023/07/11 05:24:40;;;;;;;5.00;3.97;;;;;;;;;;5046652;28;20615;-22
2023/07/11 05:27:07;;;;;;;4.50;3.58;;;;;;;;;;5049638;28;20217;-25
2023/07/11 05:29:36;;;;;;;4.68;4.18;;;;;;;;;;5036402;28;20221;-23
2023/07/11 05:32:03;;;;;;;4.32;3.80;;;;;;;;;;5036598;28;20205;-26
2023/07/11 05:34:31;;;;;;;4.95;4.45;;;;;;;;;;5040700;28;20299;-24
2023/07/11 05:36:59;;;;;;;5.97;4.15;;;;;;;;;;5043868;28;20212;-25
2023/07/11 05:39:26;;;;;;;4.53;4.13;;;;;;;;;;5035697;28;20252;-25
2023/07/11 05:41:56;;;;;;;4.85;3.72;;;;;;;;;;5047954;28;20215;-25
2023/07/11 05:44:23;;;;;;;5.70;4.10;;;;;;;;;;5038156;28;20198;-24
2023/07/11 05:46:50;;;;;;;7.38;4.25;;;;;;;;;;5032575;28;20211;-23
2023/07/11 05:49:17;;;;;;;7.32;4.00;;;;;;;;;;5031818;28;20340;-24
2023/07/11 05:51:44;;;;;;;6.40;3.78;;;;;;;;;;5036908;28;20210;-26
2023/07/11 05:54:13;;;;;;;4.10;3.70;;;;;;;;;;5047586;28;20202;-24
2023/07/11 05:56:40;;;;;;;5.75;4.40;;;;;;;;;;5036247;28;20202;-24
2023/07/11 05:59:07;;;;;;;5.45;4.22;;;;;;;;;;5044261;28;20318;-23
2023/07/11 06:01:34;;;;;;;6.70;4.30;;;;;;;;;;5052568;28;20301;-27
2023/07/11 06:04:06;;;;;;;6.57;4.28;;;;;;;;;;5045175;28;20296;-23
2023/07/11 06:06:35;;;;;;;4.65;4.20;;;;;;;;;;5036154;28;20212;-26
2023/07/11 06:09:02;;;;;;;5.85;4.35;;;;;;;;;;5031740;28;20266;-25
2023/07/11 06:11:30;;;;;;;7.55;4.55;;;;;;;;;;5042489;28;20220;-27
2023/07/11 06:13:58;;;;;;;4.57;4.18;;;;;;;;;;5038519;28;20204;-25
2023/07/11 06:16:25;;;;;;;6.22;4.07;;;;;;;;;;5031221;28;20203;-26
2023/07/11 06:18:53;;;;;;;6.28;4.13;;;;;;;;;;5033929;28;20236;-27
2023/07/11 06:21:20;;;;;;;7.35;4.10;;;;;;;;;;5041132;28;20642;-22
2023/07/11 06:23:48;;;;;;;5.32;4.50;;;;;;;;;;5037886;28;20667;-23
2023/07/11 06:26:15;;;;;;;3.92;3.63;;;;;;;;;;5043220;28;20273;-26
2023/07/11 06:28:44;;;;;;;4.30;3.90;;;;;;;;;;5041192;28;20609;-26
2023/07/11 06:31:12;;;;;;;4.80;3.70;;;;;;;;;;5037244;28;20223;-26
2023/07/11 06:33:40;;;;;;;4.38;3.97;;;;;;;;;;5044854;28;20232;-27
2023/07/11 06:36:08;;;;;;;5.50;3.80;;;;;;;;;;5046143;28;20209;-25
2023/07/11 06:38:35;;;;;;;4.13;3.72;;;;;;;;;;5041823;28;20229;-24
2023/07/11 06:41:03;;;;;;;4.18;3.80;;;;;;;;;;5046791;28;20201;-23
2023/07/11 06:43:30;;;;;;;4.10;3.58;;;;;;;;;;5055252;28;20288;-22
2023/07/11 06:46:00;;;;;;;5.13;3.63;;;;;;;;;;5058295;28;20213;-25
2023/07/11 06:48:28;;;;;;;6.97;3.70;;;;;;;;;;5050314;28;20507;-24
2023/07/11 06:50:56;;;;;;;4.63;3.30;;;;;;;;;;5047481;28;20297;-24
2023/07/11 06:53:23;;;;;;;4.75;3.90;;;;;;;;;;5051795;28;20199;-26
2023/07/11 06:55:52;;;;;;;3.70;3.35;;;;;;;;;;5040615;28;20205;-24
2023/07/11 06:58:21;;;;;;;4.65;3.30;;;;;;;;;;5037888;28;20233;-27
2023/07/11 07:00:53;;;;;;;3.97;3.58;;;;;;;;;;5046786;28;20722;-25
2023/07/11 07:03:22;;;;;;;7.38;3.30;;;;;;;;;;5041718;28;20213;-24
2023/07/11 07:05:50;;;;;;;4.80;3.50;;;;;;;;;;5035967;28;20214;-26
2023/07/11 07:08:20;;;;;;;3.83;3.40;;;;;;;;;;5038561;28;20623;-27
2023/07/11 07:10:53;;;;;;;4.55;3.25;;;;;;;;;;5044695;28;20209;-24
2023/07/11 07:13:21;;;;;;;3.55;3.25;;;;;;;;;;5042735;28;20206;-24
2023/07/11 07:15:49;;;;;;;4.13;3.30;;;;;;;;;;5051438;28;20212;-24
2023/07/11 07:18:17;;;;;;;5.20;3.17;;;;;;;;;;5043427;28;20225;-26
2023/07/11 07:20:46;;;;;;;3.63;3.30;;;;;;;;;;5044567;28;20209;-24
2023/07/11 07:23:13;;;;;;;4.20;3.47;;;;;;;;;;5043081;28;20216;-27
2023/07/11 07:25:40;;;;;;;3.65;3.35;;;;;;;;;;5040555;28;20214;-25
2023/07/11 07:28:08;;;;;;;4.53;3.25;;;;;;;;;;5044979;28;20221;-24
2023/07/11 07:30:35;;;;;;;3.53;3.00;;;;;;;;;;5046555;28;20209;-28
2023/07/11 07:33:02;;;;;;;6.40;3.38;;;;;;;;;;5033950;28;20264;-26
2023/07/11 07:35:29;;;;;;;3.30;3.00;;;;;;;;;;5040715;28;20205;-24
2023/07/11 07:37:58;;;;;;;3.13;2.78;;;;;;;;;;5047790;28;20235;-25
2023/07/11 07:40:25;;;;;;;3.70;3.08;;;;;;;;;;5041210;28;20229;-26
2023/07/11 07:42:52;;;;;;;3.08;2.78;;;;;;;;;;5049984;28;20292;-26
2023/07/11 07:45:19;;;;;;;4.07;3.17;;;;;;;;;;5037189;28;20218;-27
2023/07/11 07:47:46;;;;;;;3.25;2.95;;;;;;;;;;5050676;28;20228;-26
2023/07/11 07:50:14;;;;;;;3.38;3.08;;;;;;;;;;5042800;28;20487;-26
2023/07/11 07:52:41;;;;;;;5.05;3.08;;;;;;;;;;5046515;28;20210;-26
2023/07/11 07:55:10;;;;;;;3.60;3.10;;;;;;;;;;5036302;28;20209;-26
2023/07/11 07:57:37;;;;;;;6.13;3.50;;;;;;;;;;5042700;28;20837;-23
2023/07/11 08:00:05;;;;;;;2.95;2.75;;;;;;;;;;5042153;28;20226;-28
2023/07/11 08:02:32;;;;;;;5.03;3.08;;;;;;;;;;5041802;28;20479;-27
2023/07/11 08:05:00;;;;;;;3.53;3.17;;;;;;;;;;5045029;28;20714;-25
2023/07/11 08:07:27;;;;;;;3.60;3.25;;;;;;;;;;5039139;28;20202;-27
2023/07/11 08:09:55;;;;;;;4.75;3.42;;;;;;;;;;5044781;28;20205;-27
2023/07/11 08:12:24;;;;;;;3.30;3.00;;;;;;;;;;5047159;28;20221;-26
2023/07/11 08:14:51;;;;;;;3.40;3.10;;;;;;;;;;5043793;28;20206;-28
2023/07/11 08:17:18;;;;;;;4.07;3.03;;;;;;;;;;5045649;28;20218;-24
2023/07/11 08:19:45;;;;;;;4.13;3.35;;;;;;;;;;5039372;28;20217;-28
2023/07/11 08:22:12;;;;;;;3.83;3.42;;;;;;;;;;5049016;28;20212;-25
2023/07/11 08:24:39;;;;;;;3.50;3.10;;;;;;;;;;5040791;28;20212;-27
2023/07/11 08:27:06;;;;;;;6.25;3.30;;;;;;;;;;5031587;28;20675;-25
2023/07/11 08:29:37;;;;;;;4.05;3.60;;;;;;;;;;5040490;28;20230;-24
2023/07/11 08:32:05;;;;;;;4.10;3.67;;;;;;;;;;5033503;28;20213;-28
2023/07/11 08:34:32;;;;;;;4.60;3.50;;;;;;;;;;5277705;23;20241;-30
2023/07/11 08:37:00;;;;;;;3.90;3.50;;;;;;;;;;5081440;28;20203;-24
2023/07/11 08:39:27;;;;;;;5.10;3.30;;;;;;;;;;5094410;28;20240;-28
2023/07/11 08:41:55;;;;;;;4.53;3.22;;;;;;;;;;5095389;28;20211;-27
2023/07/11 08:44:25;;;;;;;4.20;3.72;;;;;;;;;;5093055;28;20200;-26
2023/07/11 08:46:56;;;;;;;5.40;3.58;;;;;;;;;;5092312;28;20204;-28
2023/07/11 08:49:27;;;;;;;4.18;3.80;;;;;;;;;;5097454;28;20698;-28
2023/07/11 08:51:56;;;;;;;4.15;3.75;;;;;;;;;;5096591;28;20205;-31
2023/07/11 08:54:26;;;;;;;6.40;3.78;;;;;;;;;;5088285;28;20215;-32
2023/07/11 08:57:01;;;;;;;4.72;4.00;;;;;;;;;;5095560;28;20200;-29
2023/07/11 08:59:34;;;;;;;5.03;3.50;;;;;;;;;;5098589;28;20226;-33
2023/07/11 09:02:07;;;;;;;4.15;3.40;;;;;;;;;;5100088;28;20203;-32
2023/07/11 09:04:34;;;;;;;4.30;3.58;;;;;;;;;;5089996;28;20207;-32
2023/07/11 09:07:04;;;;;;;5.50;4.00;;;;;;;;;;5096893;28;20211;-30
2023/07/11 09:09:32;;;;;;;4.35;3.72;;;;;;;;;;5088918;28;20285;-37
2023/07/11 09:12:11;;;;;;;6.03;4.00;;;;;;;;;;5093494;28;20237;-35
2023/07/11 09:14:45;;;;;;;4.40;4.00;;;;;;;;;;5091169;28;20212;-34
2023/07/11 09:17:18;;;;;;;5.93;4.35;;;;;;;;;;5094332;28;20247;-37
2023/07/11 09:20:03;;;;;;;5.78;4.20;;;;;;;;;;5101825;28;20224;-33
2023/07/11 09:22:42;;;;;;;5.63;4.40;;;;;;;;;;5103642;28;20233;-32
2023/07/11 09:25:11;;;;;;;6.70;4.22;;;;;;;;;;5106548;28;20215;-32
2023/07/11 09:27:41;;;;;;;6.15;4.63;;;;;;;;;;5101493;28;20208;-33
2023/07/11 09:30:15;;;;;;;6.03;4.07;;;;;;;;;;5092701;28;20246;-28
2023/07/11 09:32:43;;;;;;;6.47;4.65;;;;;;;;;;5091455;28;20272;-31
2023/07/11 09:35:23;;;;;;;4.75;3.83;;;;;;;;;;5095351;28;20213;-33
2023/07/11 09:37:53;;;;;;;4.65;4.15;;;;;;;;;;5105209;28;20226;-32
2023/07/11 09:40:31;;;;;;;11.40;4.88;;;;;;;;;;5100222;28;20216;-35
2023/07/11 09:42:58;;;;;;;13.98;4.70;;;;;;;;;;5092024;28;20210;-31
2023/07/11 09:45:27;;;;;;;9.10;5.38;;;;;;;;;;5089912;28;20573;-28
2023/07/11 09:48:01;;;;;;;4.85;4.18;;;;;;;;;;5090105;28;20702;-28
2023/07/11 09:50:37;;;;;;;5.40;4.35;;;;;;;;;;5098032;28;20203;-32
2023/07/11 09:53:09;;;;;;;5.18;4.68;;;;;;;;;;5099769;28;20196;-34
2023/07/11 09:55:37;;;;;;;8.25;4.35;;;;;;;;;;5092417;28;20197;-32
2023/07/11 09:58:04;;;;;;;6.25;4.85;;;;;;;;;;5103470;28;20216;-34
2023/07/11 10:00:31;;;;;;;5.82;4.30;;;;;;;;;;5098222;28;20231;-27
2023/07/11 10:03:00;;;;;;;5.68;4.28;;;;;;;;;;5086566;28;20234;-34
2023/07/11 10:05:27;;;;;;;7.65;4.60;;;;;;;;;;5091611;28;20250;-33
2023/07/11 10:08:01;;;;;;;5.28;4.78;;;;;;;;;;5096445;28;20231;-32
2023/07/11 10:10:28;;;;;;;5.05;4.28;;;;;;;;;;5088556;28;20204;-36
2023/07/11 10:12:55;;;;;;;8.63;4.40;;;;;;;;;;5105548;28;20206;-35
2023/07/11 10:15:28;;;;;;;7.82;4.22;;;;;;;;;;5097772;28;20642;-36
2023/07/11 10:17:56;;;;;;;9.63;4.40;;;;;;;;;;5090887;28;20235;-37
2023/07/11 10:20:26;;;;;;;4.82;4.40;;;;;;;;;;5101485;28;20268;-33
2023/07/11 10:22:56;;;;;;;7.20;4.72;;;;;;;;;;5093492;28;20319;-31
2023/07/11 10:25:26;;;;;;;8.48;4.40;;;;;;;;;;5095132;28;20199;-33
2023/07/11 10:27:54;;;;;;;5.18;4.68;;;;;;;;;;5096178;28;20233;-33
2023/07/11 10:30:23;;;;;;;6.57;4.40;;;;;;;;;;5089919;28;20207;-35
2023/07/11 10:32:56;;;;;;;7.10;4.75;;;;;;;;;;5096831;28;20208;-33
2023/07/11 10:35:25;;;;;;;6.05;4.28;;;;;;;;;;5089727;28;20279;-35
2023/07/11 10:37:54;;;;;;;6.30;5.47;;;;;;;;;;5106660;28;20255;-38
2023/07/11 10:40:24;;;;;;;5.82;4.35;;;;;;;;;;5093656;28;20231;-35
2023/07/11 10:42:55;;;;;;;5.93;4.47;;;;;;;;;;5108115;28;20291;-36
2023/07/11 10:45:26;;;;;;;5.28;4.38;;;;;;;;;;5086993;28;20196;-26
2023/07/11 10:47:56;;;;;;;7.97;4.60;;;;;;;;;;5089478;28;20228;-28
2023/07/11 10:50:37;;;;;;;4.32;3.92;;;;;;;;;;5098262;28;20245;-30
2023/07/11 10:53:09;;;;;;;7.05;4.20;;;;;;;;;;5089573;28;20204;-34
2023/07/11 10:55:48;;;;;;;7.88;4.07;;;;;;;;;;5091750;28;20200;-36
2023/07/11 10:58:18;;;;;;;6.00;4.60;;;;;;;;;;5094295;28;20224;-35
2023/07/11 11:00:50;;;;;;;6.13;4.18;;;;;;;;;;5107709;28;20215;-33
2023/07/11 11:03:27;;;;;;;5.18;4.00;;;;;;;;;;5088788;28;20201;-34
2023/07/11 11:05:58;;;;;;;5.95;4.32;;;;;;;;;;5099354;28;20211;-32
2023/07/11 11:08:30;;;;;;;5.30;4.45;;;;;;;;;;5108099;28;20666;-32
2023/07/11 11:11:03;;;;;;;6.43;4.68;;;;;;;;;;5100536;28;20206;-31
2023/07/11 11:13:35;;;;;;;5.72;4.38;;;;;;;;;;5109195;28;20372;-32
2023/07/11 11:16:12;;;;;;;5.35;4.25;;;;;;;;;;5090315;28;20200;-35
2023/07/11 11:18:49;;;;;;;4.90;4.10;;;;;;;;;;5094643;28;20231;-31
2023/07/11 11:21:23;;;;;;;7.72;4.38;;;;;;;;;;5092196;28;20303;-33
2023/07/11 11:24:01;;;;;;;4.60;4.25;;;;;;;;;;5098781;28;20204;-30
2023/07/11 11:26:32;;;;;;;5.15;4.45;;;;;;;;;;5093994;28;20207;-32
2023/07/11 11:29:03;;;;;;;5.18;4.57;;;;;;;;;;5104872;28;20224;-29
2023/07/11 11:31:31;;;;;;;6.95;4.43;;;;;;;;;;5109175;28;20229;-35
2023/07/11 11:34:10;;;;;;;7.13;4.55;;;;;;;;;;5098466;28;20219;-31
2023/07/11 11:36:43;;;;;;;5.72;4.43;;;;;;;;;;5107750;28;20307;-32
2023/07/11 11:39:18;;;;;;;6.50;4.60;;;;;;;;;;5106576;28;20238;-32
2023/07/11 11:41:47;;;;;;;6.82;4.68;;;;;;;;;;5107322;28;20223;-33
2023/07/11 11:44:16;;;;;;;5.85;4.85;;;;;;;;;;5095214;28;20193;-30
2023/07/11 11:46:44;;;;;;;5.38;4.60;;;;;;;;;;5094952;28;20208;-32
2023/07/11 11:49:12;;;;;;;7.65;4.70;;;;;;;;;;5103719;28;20235;-27
2023/07/11 11:51:41;;;;;;;5.90;4.95;;;;;;;;;;5109934;28;20205;-33
2023/07/11 11:54:17;;;;;;;5.90;4.50;;;;;;;;;;5108863;28;20196;-33
2023/07/11 11:56:46;;;;;;;9.40;4.80;;;;;;;;;;5097270;28;20200;-30
2023/07/11 11:59:17;;;;;;;5.25;4.75;;;;;;;;;;5105701;28;20251;-29
2023/07/11 12:01:56;;;;;;;6.03;5.03;;;;;;;;;;5099415;28;20216;-35
2023/07/11 12:04:35;;;;;;;5.80;4.22;;;;;;;;;;5100506;28;20221;-33
2023/07/11 12:07:06;;;;;;;4.72;4.20;;;;;;;;;;5107544;28;20961;-30
2023/07/11 12:09:39;;;;;;;7.15;4.82;;;;;;;;;;5093595;28;20231;-34
2023/07/11 12:12:08;;;;;;;5.97;4.50;;;;;;;;;;5099489;28;20199;-32
2023/07/11 12:14:37;;;;;;;9.93;5.30;;;;;;;;;;5094828;28;20201;-31
2023/07/11 12:17:04;;;;;;;5.57;5.05;;;;;;;;;;5093326;28;20304;-30
2023/07/11 12:19:34;;;;;;;5.85;4.50;;;;;;;;;;5110458;28;20231;-29
2023/07/11 12:22:04;;;;;;;8.18;4.97;;;;;;;;;;5106993;28;20763;-29
2023/07/11 12:24:46;;;;;;;5.13;4.60;;;;;;;;;;5112043;28;20253;-33
2023/07/11 12:27:43;;;;;;;6.20;4.32;;;;;;;;;;5096400;28;20219;-34
2023/07/11 12:30:30;;;;;;;5.70;4.55;;;;;;;;;;5093971;28;20195;-31
2023/07/11 12:32:58;;;;;;;5.35;4.63;;;;;;;;;;5092553;28;20201;-32
2023/07/11 12:35:26;;;;;;;5.30;4.78;;;;;;;;;;5093403;28;20208;-33
2023/07/11 12:38:02;;;;;;;6.28;4.75;;;;;;;;;;5100136;28;20307;-35
2023/07/11 12:40:36;;;;;;;6.88;4.38;;;;;;;;;;5093197;28;20220;-33
2023/07/11 12:43:04;;;;;;;7.00;4.75;;;;;;;;;;5097438;28;20210;-33
2023/07/11 12:45:35;;;;;;;5.68;4.93;;;;;;;;;;5107759;28;20208;-38
2023/07/11 12:48:05;;;;;;;5.38;4.85;;;;;;;;;;5100771;28;20303;-32
2023/07/11 12:50:38;;;;;;;8.45;4.75;;;;;;;;;;5101494;28;20199;-35
2023/07/11 12:53:06;;;;;;;5.60;4.60;;;;;;;;;;5097208;28;20196;-33
2023/07/11 12:55:34;;;;;;;6.20;5.10;;;;;;;;;;5092381;28;20207;-32
2023/07/11 12:58:01;;;;;;;7.82;4.88;;;;;;;;;;5095886;28;20225;-32
2023/07/11 13:00:29;;;;;;;8.88;4.60;;;;;;;;;;5094275;28;20216;-33
2023/07/11 13:02:58;;;;;;;8.02;5.32;;;;;;;;;;5100256;28;20199;-31
2023/07/11 13:05:25;;;;;;;5.53;5.03;;;;;;;;;;5103338;28;20204;-35
2023/07/11 13:07:52;;;;;;;5.28;4.60;;;;;;;;;;5096723;28;20224;-37
2023/07/11 13:10:21;;;;;;;9.40;5.03;;;;;;;;;;5098294;28;20196;-33
2023/07/11 13:12:51;;;;;;;7.68;5.28;;;;;;;;;;5094761;28;20208;-30
2023/07/11 13:15:19;;;;;;;6.72;4.82;;;;;;;;;;5094376;28;20254;-32
2023/07/11 13:17:49;;;;;;;6.72;5.50;;;;;;;;;;5093371;28;20239;-33
2023/07/11 13:20:19;;;;;;;6.82;5.40;;;;;;;;;;5093769;28;20223;-34
2023/07/11 13:22:47;;;;;;;6.20;5.53;;;;;;;;;;5103377;28;20206;-31
2023/07/11 13:25:15;;;;;;;7.78;5.18;;;;;;;;;;5108382;28;20207;-28
2023/07/11 13:27:43;;;;;;;6.50;5.30;;;;;;;;;;5093946;28;20205;-29
2023/07/11 13:30:23;;;;;;;12.18;5.20;;;;;;;;;;5113819;28;20202;-31
2023/07/11 13:32:59;;;;;;;6.93;5.20;;;;;;;;;;5110069;28;20200;-31
2023/07/11 13:35:27;;;;;;;7.95;5.45;;;;;;;;;;5101867;28;20281;-31
2023/07/11 13:37:54;;;;;;;8.23;5.30;;;;;;;;;;5096129;28;20308;-28
2023/07/11 13:40:38;;;;;;;6.63;4.93;;;;;;;;;;5103678;28;20219;-33
2023/07/11 13:43:14;;;;;;;11.05;5.43;;;;;;;;;;5094001;28;20196;-32
2023/07/11 13:45:42;;;;;;;11.18;5.50;;;;;;;;;;5103524;28;20196;-35
2023/07/11 13:48:13;;;;;;;10.20;4.88;;;;;;;;;;5092816;28;20231;-36
2023/07/11 13:50:41;;;;;;;6.85;5.20;;;;;;;;;;5096450;28;20283;-30
2023/07/11 13:53:13;;;;;;;10.35;5.40;;;;;;;;;;5100092;28;20207;-32
2023/07/11 13:55:44;;;;;;;9.70;5.70;;;;;;;;;;5091093;28;20200;-30
2023/07/11 13:58:11;;;;;;;7.05;5.05;;;;;;;;;;5093003;28;20220;-30
2023/07/11 14:00:38;;;;;;;7.65;5.68;;;;;;;;;;5110096;28;20654;-34
2023/07/11 14:03:12;;;;;;;7.40;5.07;;;;;;;;;;5110264;28;20286;-33
2023/07/11 14:05:46;;;;;;;6.95;5.75;;;;;;;;;;5104501;28;20211;-31
2023/07/11 14:08:13;;;;;;;7.53;5.50;;;;;;;;;;5105978;28;20232;-32
2023/07/11 14:10:40;;;;;;;8.80;5.45;;;;;;;;;;5104324;28;20208;-36
2023/07/11 14:13:11;;;;;;;12.05;6.03;;;;;;;;;;5099312;28;20201;-36
2023/07/11 14:15:38;;;;;;;8.27;6.00;;;;;;;;;;5110493;28;20196;-31
2023/07/11 14:18:10;;;;;;;7.88;5.15;;;;;;;;;;5101859;28;20222;-34
2023/07/11 14:20:39;;;;;;;6.30;5.70;;;;;;;;;;5098808;28;20227;-28
2023/07/11 14:23:11;;;;;;;9.43;5.85;;;;;;;;;;5099400;28;20199;-35
2023/07/11 14:25:38;;;;;;;6.13;5.22;;;;;;;;;;5096679;28;20206;-36
2023/07/11 14:28:06;;;;;;;8.55;5.80;;;;;;;;;;5104561;28;20238;-31
2023/07/11 14:30:33;;;;;;;7.25;5.68;;;;;;;;;;5113422;28;20203;-36
2023/07/11 14:33:01;;;;;;;7.20;5.45;;;;;;;;;;5111301;28;20222;-36
2023/07/11 14:35:29;;;;;;;6.75;5.10;;;;;;;;;;5103371;28;20212;-36
2023/07/11 14:37:56;;;;;;;6.25;5.30;;;;;;;;;;5304849;22;20717;-29
2023/07/11 14:40:26;;;;;;;10.07;5.97;;;;;;;;;;5043653;28;20207;-27
2023/07/11 14:42:53;;;;;;;6.45;5.30;;;;;;;;;;5044435;28;20222;-29
2023/07/11 14:45:21;;;;;;;11.90;6.32;;;;;;;;;;5052073;28;20193;-28
2023/07/11 14:47:49;;;;;;;7.95;5.30;;;;;;;;;;5052111;28;20233;-29
2023/07/11 14:50:16;;;;;;;9.55;5.95;;;;;;;;;;5042928;28;20573;-28
2023/07/11 14:52:56;;;;;;;6.68;5.18;;;;;;;;;;5052193;28;20208;-27
2023/07/11 14:55:24;;;;;;;6.45;4.97;;;;;;;;;;5045697;28;20229;-29
2023/07/11 14:57:52;;;;;;;7.53;5.13;;;;;;;;;;5053599;28;20317;-29
2023/07/11 15:00:20;;;;;;;7.15;5.47;;;;;;;;;;5055270;28;20194;-29
2023/07/11 15:02:48;;;;;;;7.78;5.55;;;;;;;;;;5056471;28;20233;-29
2023/07/11 15:05:17;;;;;;;8.70;4.25;;;;;;;;;;5051210;28;20202;-26
2023/07/11 15:07:44;;;;;;;7.95;4.68;;;;;;;;;;5053445;28;20232;-27
2023/07/11 15:10:12;;;;;;;7.95;4.55;;;;;;;;;;5048599;28;20289;-26
2023/07/11 15:12:40;;;;;;;5.60;4.65;;;;;;;;;;5052924;28;20240;-26
2023/07/11 15:15:17;;;;;;;6.88;5.40;;;;;;;;;;5056149;28;20206;-29
2023/07/11 15:17:45;;;;;;;6.15;4.90;;;;;;;;;;5055579;28;20221;-29
2023/07/11 15:20:13;;;;;;;7.90;5.20;;;;;;;;;;5049157;28;20210;-29
2023/07/11 15:22:45;;;;;;;9.95;5.05;;;;;;;;;;5051237;28;20312;-30
2023/07/11 15:25:28;;;;;;;10.52;4.90;;;;;;;;;;5048188;28;20656;-28
2023/07/11 15:27:56;;;;;;;4.57;4.18;;;;;;;;;;5054297;28;20232;-29
2023/07/11 15:30:23;;;;;;;4.80;4.20;;;;;;;;;;5056122;28;20198;-30
2023/07/11 15:32:50;;;;;;;5.40;4.22;;;;;;;;;;5055743;28;20762;-30
2023/07/11 15:35:19;;;;;;;7.80;5.00;;;;;;;;;;5045887;28;20208;-29
2023/07/11 15:37:46;;;;;;;7.35;5.18;;;;;;;;;;5051551;28;20233;-28
2023/07/11 15:40:17;;;;;;;6.22;4.40;;;;;;;;;;5052198;28;20193;-27
2023/07/11 15:42:45;;;;;;;6.57;5.00;;;;;;;;;;5052619;28;20588;-30
2023/07/11 15:45:21;;;;;;;4.68;4.10;;;;;;;;;;5055092;28;20252;-29
2023/07/11 15:47:49;;;;;;;4.25;3.85;;;;;;;;;;5046297;28;20706;-29
2023/07/11 15:50:17;;;;;;;10.48;5.10;;;;;;;;;;5054038;28;20636;-30
2023/07/11 15:52:44;;;;;;;11.80;5.03;;;;;;;;;;5054650;28;20194;-30
2023/07/11 15:55:15;;;;;;;8.05;4.85;;;;;;;;;;5044978;28;20206;-31
2023/07/11 15:57:42;;;;;;;15.07;5.75;;;;;;;;;;5053655;28;20202;-27
2023/07/11 16:00:15;;;;;;;6.25;4.82;;;;;;;;;;5054319;28;20201;-29
2023/07/11 16:02:42;;;;;;;8.77;5.80;;;;;;;;;;5054483;28;20683;-26